sensor_id;sensor_type;location;lat;lon;timestamp;temperature;humidity
60353;DHT22;46196;52.970;6.954;2024-01-27T00:00:08;3.20;99.90
60353;DHT22;46196;52.970;6.954;2024-01-27T00:02:35;3.20;99.90
60353;DHT22;46196;52.970;6.954;2024-01-27T00:05:02;3.10;99.90
60353;DHT22;46196;52.970;6.954;2024-01-27T00:07:28;3.10;99.90
60353;DHT22;46196;52.970;6.954;2024-01-27T00:09:54;3.20;99.90
60353;DHT22;46196;52.970;6.954;2024-01-27T00:12:20;3.10;99.90
60353;DHT22;46196;52.970;6.954;2024-01-27T00:14:46;3.10;99.90
60353;DHT22;46196;52.970;6.954;2024-01-27T00:17:12;3.10;99.90
60353;DHT22;46196;52.970;6.954;2024-01-27T00:19:37;4.60;99.90
60353;DHT22;46196;52.970;6.954;2024-01-27T00:22:03;3.10;99.90
60353;DHT22;46196;52.970;6.954;2024-01-27T00:24:29;3.10;99.90
60353;DHT22;46196;52.970;6.954;2024-01-27T00:26:54;3.10;99.90
60353;DHT22;46196;52.970;6.954;2024-01-27T00:29:20;3.10;99.90
60353;DHT22;46196;52.970;6.954;2024-01-27T00:31:46;3.10;99.90
60353;DHT22;46196;52.970;6.954;2024-01-27T00:34:12;3.00;99.90
60353;DHT22;46196;52.970;6.954;2024-01-27T00:36:37;3.00;99.90
60353;DHT22;46196;52.970;6.954;2024-01-27T00:39:04;3.00;99.90
60353;DHT22;46196;52.970;6.954;2024-01-27T00:41:29;3.00;99.90
60353;DHT22;46196;52.970;6.954;2024-01-27T00:43:55;3.10;99.90
60353;DHT22;46196;52.970;6.954;2024-01-27T00:46:21;3.10;99.90
60353;DHT22;46196;52.970;6.954;2024-01-27T00:48:46;3.10;99.90
60353;DHT22;46196;52.970;6.954;2024-01-27T00:51:13;3.20;99.90
60353;DHT22;46196;52.970;6.954;2024-01-27T00:53:39;3.20;99.90
60353;DHT22;46196;52.970;6.954;2024-01-27T00:56:05;3.20;99.90
60353;DHT22;46196;52.970;6.954;2024-01-27T00:58:31;3.20;99.90
60353;DHT22;46196;52.970;6.954;2024-01-27T01:00:57;3.20;99.90
60353;DHT22;46196;52.970;6.954;2024-01-27T01:03:24;3.30;99.90
60353;DHT22;46196;52.970;6.954;2024-01-27T01:05:49;3.30;99.90
60353;DHT22;46196;52.970;6.954;2024-01-27T01:08:15;3.30;99.90
60353;DHT22;46196;52.970;6.954;2024-01-27T01:10:41;3.30;99.90
60353;DHT22;46196;52.970;6.954;2024-01-27T01:13:06;3.30;99.90
60353;DHT22;46196;52.970;6.954;2024-01-27T01:15:32;3.20;99.90
60353;DHT22;46196;52.970;6.954;2024-01-27T01:17:58;3.40;99.90
60353;DHT22;46196;52.970;6.954;2024-01-27T01:20:23;3.30;99.90
60353;DHT22;46196;52.970;6.954;2024-01-27T01:22:51;3.40;99.90
60353;DHT22;46196;52.970;6.954;2024-01-27T01:25:17;3.40;99.90
60353;DHT22;46196;52.970;6.954;2024-01-27T01:27:42;3.30;99.90
60353;DHT22;46196;52.970;6.954;2024-01-27T01:30:09;3.30;99.90
60353;DHT22;46196;52.970;6.954;2024-01-27T01:32:35;3.40;99.90
60353;DHT22;46196;52.970;6.954;2024-01-27T01:35:01;3.30;99.90
60353;DHT22;46196;52.970;6.954;2024-01-27T01:37:27;3.30;99.90
60353;DHT22;46196;52.970;6.954;2024-01-27T01:39:53;3.30;99.90
60353;DHT22;46196;52.970;6.954;2024-01-27T01:42:18;3.30;99.90
60353;DHT22;46196;52.970;6.954;2024-01-27T01:44:46;4.00;99.90
60353;DHT22;46196;52.970;6.954;2024-01-27T01:47:11;3.20;99.90
60353;DHT22;46196;52.970;6.954;2024-01-27T01:49:37;3.10;99.90
60353;DHT22;46196;52.970;6.954;2024-01-27T01:52:03;3.30;99.90
60353;DHT22;46196;52.970;6.954;2024-01-27T01:54:29;3.00;99.90
60353;DHT22;46196;52.970;6.954;2024-01-27T01:56:58;3.00;99.90
60353;DHT22;46196;52.970;6.954;2024-01-27T01:59:24;3.00;99.90
60353;DHT22;46196;52.970;6.954;2024-01-27T02:01:50;3.10;99.90
60353;DHT22;46196;52.970;6.954;2024-01-27T02:04:15;3.00;99.90
60353;DHT22;46196;52.970;6.954;2024-01-27T02:06:41;3.00;99.90
60353;DHT22;46196;52.970;6.954;2024-01-27T02:09:07;3.00;99.90
60353;DHT22;46196;52.970;6.954;2024-01-27T02:11:32;2.90;99.90
60353;DHT22;46196;52.970;6.954;2024-01-27T02:13:58;2.90;99.90
60353;DHT22;46196;52.970;6.954;2024-01-27T02:16:24;2.90;99.90
60353;DHT22;46196;52.970;6.954;2024-01-27T02:18:49;2.80;99.90
60353;DHT22;46196;52.970;6.954;2024-01-27T02:21:15;2.80;99.90
60353;DHT22;46196;52.970;6.954;2024-01-27T02:23:41;2.90;99.90
60353;DHT22;46196;52.970;6.954;2024-01-27T02:26:06;2.90;99.90
60353;DHT22;46196;52.970;6.954;2024-01-27T02:28:32;2.90;99.90
60353;DHT22;46196;52.970;6.954;2024-01-27T02:30:59;2.80;99.90
60353;DHT22;46196;52.970;6.954;2024-01-27T02:33:28;2.90;99.90
60353;DHT22;46196;52.970;6.954;2024-01-27T02:35:54;2.90;99.90
60353;DHT22;46196;52.970;6.954;2024-01-27T02:38:20;2.80;99.90
60353;DHT22;46196;52.970;6.954;2024-01-27T02:40:46;2.80;99.90
60353;DHT22;46196;52.970;6.954;2024-01-27T02:43:11;2.80;99.90
60353;DHT22;46196;52.970;6.954;2024-01-27T02:45:37;2.90;99.90
60353;DHT22;46196;52.970;6.954;2024-01-27T02:48:03;2.90;99.90
60353;DHT22;46196;52.970;6.954;2024-01-27T02:50:29;2.90;99.90
60353;DHT22;46196;52.970;6.954;2024-01-27T02:52:55;2.90;99.90
60353;DHT22;46196;52.970;6.954;2024-01-27T02:55:21;3.20;99.90
60353;DHT22;46196;52.970;6.954;2024-01-27T02:57:46;2.90;99.90
60353;DHT22;46196;52.970;6.954;2024-01-27T03:00:12;2.90;99.90
60353;DHT22;46196;52.970;6.954;2024-01-27T03:02:38;2.90;99.90
60353;DHT22;46196;52.970;6.954;2024-01-27T03:05:04;2.80;99.90
60353;DHT22;46196;52.970;6.954;2024-01-27T03:07:29;2.80;99.90
60353;DHT22;46196;52.970;6.954;2024-01-27T03:09:57;2.80;99.90
60353;DHT22;46196;52.970;6.954;2024-01-27T03:12:22;2.80;99.90
60353;DHT22;46196;52.970;6.954;2024-01-27T03:14:48;2.80;99.90
60353;DHT22;46196;52.970;6.954;2024-01-27T03:17:15;2.80;99.90
60353;DHT22;46196;52.970;6.954;2024-01-27T03:19:40;3.60;99.90
60353;DHT22;46196;52.970;6.954;2024-01-27T03:22:06;2.80;99.90
60353;DHT22;46196;52.970;6.954;2024-01-27T03:24:32;2.70;99.90
60353;DHT22;46196;52.970;6.954;2024-01-27T03:26:57;2.80;99.90
60353;DHT22;46196;52.970;6.954;2024-01-27T03:29:23;2.90;99.90
60353;DHT22;46196;52.970;6.954;2024-01-27T03:31:49;2.90;99.90
60353;DHT22;46196;52.970;6.954;2024-01-27T03:34:14;2.90;99.90
60353;DHT22;46196;52.970;6.954;2024-01-27T03:36:40;3.00;99.90
60353;DHT22;46196;52.970;6.954;2024-01-27T03:39:06;3.00;99.90
60353;DHT22;46196;52.970;6.954;2024-01-27T03:41:32;3.00;99.90
60353;DHT22;46196;52.970;6.954;2024-01-27T03:43:58;3.00;99.90
60353;DHT22;46196;52.970;6.954;2024-01-27T03:46:23;3.00;99.90
60353;DHT22;46196;52.970;6.954;2024-01-27T03:48:49;3.00;99.90
60353;DHT22;46196;52.970;6.954;2024-01-27T03:51:15;3.00;99.90
60353;DHT22;46196;52.970;6.954;2024-01-27T03:53:40;3.00;99.90
60353;DHT22;46196;52.970;6.954;2024-01-27T03:56:06;3.00;99.90
60353;DHT22;46196;52.970;6.954;2024-01-27T03:58:32;2.90;99.90
60353;DHT22;46196;52.970;6.954;2024-01-27T04:00:58;2.90;99.90
60353;DHT22;46196;52.970;6.954;2024-01-27T04:03:24;2.80;99.90
60353;DHT22;46196;52.970;6.954;2024-01-27T04:05:50;2.80;99.90
60353;DHT22;46196;52.970;6.954;2024-01-27T04:08:15;2.80;99.90
60353;DHT22;46196;52.970;6.954;2024-01-27T04:10:41;2.70;99.90
60353;DHT22;46196;52.970;6.954;2024-01-27T04:13:07;2.70;99.90
60353;DHT22;46196;52.970;6.954;2024-01-27T04:15:33;2.70;99.90
60353;DHT22;46196;52.970;6.954;2024-01-27T04:18:07;2.80;99.90
60353;DHT22;46196;52.970;6.954;2024-01-27T04:20:34;2.70;99.90
60353;DHT22;46196;52.970;6.954;2024-01-27T04:23:00;2.80;99.90
60353;DHT22;46196;52.970;6.954;2024-01-27T04:25:26;2.70;99.90
60353;DHT22;46196;52.970;6.954;2024-01-27T04:27:52;2.80;99.90
60353;DHT22;46196;52.970;6.954;2024-01-27T04:30:19;2.80;99.90
60353;DHT22;46196;52.970;6.954;2024-01-27T04:32:44;2.80;99.90
60353;DHT22;46196;52.970;6.954;2024-01-27T04:35:11;2.70;99.90
60353;DHT22;46196;52.970;6.954;2024-01-27T04:37:37;2.70;99.90
60353;DHT22;46196;52.970;6.954;2024-01-27T04:40:06;2.70;99.90
60353;DHT22;46196;52.970;6.954;2024-01-27T04:42:37;2.70;99.90
60353;DHT22;46196;52.970;6.954;2024-01-27T04:45:03;2.70;99.90
60353;DHT22;46196;52.970;6.954;2024-01-27T04:47:30;2.70;99.90
60353;DHT22;46196;52.970;6.954;2024-01-27T04:49:56;2.60;99.90
60353;DHT22;46196;52.970;6.954;2024-01-27T04:52:23;2.60;99.90
60353;DHT22;46196;52.970;6.954;2024-01-27T04:54:48;2.70;99.90
60353;DHT22;46196;52.970;6.954;2024-01-27T04:57:14;2.60;99.90
60353;DHT22;46196;52.970;6.954;2024-01-27T04:59:40;2.60;99.90
60353;DHT22;46196;52.970;6.954;2024-01-27T05:02:06;2.50;99.90
60353;DHT22;46196;52.970;6.954;2024-01-27T05:04:32;2.50;99.90
60353;DHT22;46196;52.970;6.954;2024-01-27T05:06:57;2.50;99.90
60353;DHT22;46196;52.970;6.954;2024-01-27T05:09:23;2.50;99.90
60353;DHT22;46196;52.970;6.954;2024-01-27T05:11:49;2.60;99.90
60353;DHT22;46196;52.970;6.954;2024-01-27T05:14:18;2.50;99.90
60353;DHT22;46196;52.970;6.954;2024-01-27T05:16:43;2.50;99.90
60353;DHT22;46196;52.970;6.954;2024-01-27T05:19:10;3.30;99.90
60353;DHT22;46196;52.970;6.954;2024-01-27T05:21:36;2.50;99.90
60353;DHT22;46196;52.970;6.954;2024-01-27T05:24:01;2.50;99.90
60353;DHT22;46196;52.970;6.954;2024-01-27T05:26:27;2.50;99.90
60353;DHT22;46196;52.970;6.954;2024-01-27T05:28:53;2.60;99.90
60353;DHT22;46196;52.970;6.954;2024-01-27T05:31:18;2.60;99.90
60353;DHT22;46196;52.970;6.954;2024-01-27T05:33:44;2.60;99.90
60353;DHT22;46196;52.970;6.954;2024-01-27T05:36:10;2.80;99.90
60353;DHT22;46196;52.970;6.954;2024-01-27T05:38:35;2.70;99.90
60353;DHT22;46196;52.970;6.954;2024-01-27T05:41:01;2.70;99.90
60353;DHT22;46196;52.970;6.954;2024-01-27T05:43:27;2.60;99.90
60353;DHT22;46196;52.970;6.954;2024-01-27T05:45:53;2.60;99.90
60353;DHT22;46196;52.970;6.954;2024-01-27T05:48:19;2.60;99.90
60353;DHT22;46196;52.970;6.954;2024-01-27T05:50:58;2.50;99.90
60353;DHT22;46196;52.970;6.954;2024-01-27T05:53:25;2.50;99.90
60353;DHT22;46196;52.970;6.954;2024-01-27T05:55:51;2.40;99.90
60353;DHT22;46196;52.970;6.954;2024-01-27T05:58:18;2.40;99.90
60353;DHT22;46196;52.970;6.954;2024-01-27T06:00:46;2.40;99.90
60353;DHT22;46196;52.970;6.954;2024-01-27T06:03:12;2.30;99.90
60353;DHT22;46196;52.970;6.954;2024-01-27T06:05:38;2.40;99.90
60353;DHT22;46196;52.970;6.954;2024-01-27T06:08:05;2.40;99.90
60353;DHT22;46196;52.970;6.954;2024-01-27T06:10:31;2.30;99.90
60353;DHT22;46196;52.970;6.954;2024-01-27T06:12:57;2.40;99.90
60353;DHT22;46196;52.970;6.954;2024-01-27T06:15:23;2.50;99.90
60353;DHT22;46196;52.970;6.954;2024-01-27T06:17:48;2.50;99.90
60353;DHT22;46196;52.970;6.954;2024-01-27T06:20:14;2.60;99.90
60353;DHT22;46196;52.970;6.954;2024-01-27T06:22:42;2.60;99.90
60353;DHT22;46196;52.970;6.954;2024-01-27T06:25:08;2.60;99.90
60353;DHT22;46196;52.970;6.954;2024-01-27T06:27:36;2.60;99.90
60353;DHT22;46196;52.970;6.954;2024-01-27T06:30:03;2.70;99.90
60353;DHT22;46196;52.970;6.954;2024-01-27T06:32:29;2.60;99.90
60353;DHT22;46196;52.970;6.954;2024-01-27T06:34:54;2.60;99.90
60353;DHT22;46196;52.970;6.954;2024-01-27T06:37:20;2.60;99.90
60353;DHT22;46196;52.970;6.954;2024-01-27T06:39:46;2.60;99.90
60353;DHT22;46196;52.970;6.954;2024-01-27T06:42:11;2.70;99.90
60353;DHT22;46196;52.970;6.954;2024-01-27T06:44:37;2.70;99.90
60353;DHT22;46196;52.970;6.954;2024-01-27T06:47:02;2.70;99.90
60353;DHT22;46196;52.970;6.954;2024-01-27T06:49:28;2.70;99.90
60353;DHT22;46196;52.970;6.954;2024-01-27T06:51:54;2.70;99.90
60353;DHT22;46196;52.970;6.954;2024-01-27T06:54:19;2.70;99.90
60353;DHT22;46196;52.970;6.954;2024-01-27T06:56:45;2.70;99.90
60353;DHT22;46196;52.970;6.954;2024-01-27T06:59:11;2.70;99.90
60353;DHT22;46196;52.970;6.954;2024-01-27T07:01:37;2.70;99.90
60353;DHT22;46196;52.970;6.954;2024-01-27T07:04:03;2.70;99.90
60353;DHT22;46196;52.970;6.954;2024-01-27T07:06:28;2.70;99.90
60353;DHT22;46196;52.970;6.954;2024-01-27T07:08:54;2.60;99.90
60353;DHT22;46196;52.970;6.954;2024-01-27T07:11:20;2.60;99.90
60353;DHT22;46196;52.970;6.954;2024-01-27T07:13:45;2.70;99.90
60353;DHT22;46196;52.970;6.954;2024-01-27T07:16:11;2.60;99.90
60353;DHT22;46196;52.970;6.954;2024-01-27T07:18:37;2.60;99.90
60353;DHT22;46196;52.970;6.954;2024-01-27T07:21:03;2.60;99.90
60353;DHT22;46196;52.970;6.954;2024-01-27T07:23:29;2.60;99.90
60353;DHT22;46196;52.970;6.954;2024-01-27T07:25:54;2.70;99.90
60353;DHT22;46196;52.970;6.954;2024-01-27T07:28:20;2.70;99.90
60353;DHT22;46196;52.970;6.954;2024-01-27T07:30:46;2.70;99.90
60353;DHT22;46196;52.970;6.954;2024-01-27T07:33:11;2.60;99.90
60353;DHT22;46196;52.970;6.954;2024-01-27T07:35:37;2.60;99.90
60353;DHT22;46196;52.970;6.954;2024-01-27T07:38:02;2.60;99.90
60353;DHT22;46196;52.970;6.954;2024-01-27T07:40:28;2.60;99.90
60353;DHT22;46196;52.970;6.954;2024-01-27T07:42:54;2.60;99.90
60353;DHT22;46196;52.970;6.954;2024-01-27T07:45:20;2.60;99.90
60353;DHT22;46196;52.970;6.954;2024-01-27T07:47:45;2.60;99.90
60353;DHT22;46196;52.970;6.954;2024-01-27T07:50:11;2.60;99.90
60353;DHT22;46196;52.970;6.954;2024-01-27T07:52:37;2.60;99.90
60353;DHT22;46196;52.970;6.954;2024-01-27T07:55:02;2.60;99.90
60353;DHT22;46196;52.970;6.954;2024-01-27T07:57:28;2.60;99.90
60353;DHT22;46196;52.970;6.954;2024-01-27T07:59:54;2.60;99.90
60353;DHT22;46196;52.970;6.954;2024-01-27T08:02:20;2.60;99.90
60353;DHT22;46196;52.970;6.954;2024-01-27T08:04:45;2.60;99.90
60353;DHT22;46196;52.970;6.954;2024-01-27T08:07:11;2.60;99.90
60353;DHT22;46196;52.970;6.954;2024-01-27T08:09:37;2.30;99.90
60353;DHT22;46196;52.970;6.954;2024-01-27T08:12:03;2.60;99.90
60353;DHT22;46196;52.970;6.954;2024-01-27T08:14:29;2.60;99.90
60353;DHT22;46196;52.970;6.954;2024-01-27T08:16:59;2.60;99.90
60353;DHT22;46196;52.970;6.954;2024-01-27T08:19:25;2.70;99.90
60353;DHT22;46196;52.970;6.954;2024-01-27T08:21:50;2.70;99.90
60353;DHT22;46196;52.970;6.954;2024-01-27T08:24:16;2.70;99.90
60353;DHT22;46196;52.970;6.954;2024-01-27T08:26:42;2.70;99.90
60353;DHT22;46196;52.970;6.954;2024-01-27T08:29:08;2.80;99.90
60353;DHT22;46196;52.970;6.954;2024-01-27T08:31:35;2.80;99.90
60353;DHT22;46196;52.970;6.954;2024-01-27T08:34:00;2.80;99.90
60353;DHT22;46196;52.970;6.954;2024-01-27T08:36:26;2.80;99.90
60353;DHT22;46196;52.970;6.954;2024-01-27T08:38:52;2.90;99.90
60353;DHT22;46196;52.970;6.954;2024-01-27T08:41:17;2.90;99.90
60353;DHT22;46196;52.970;6.954;2024-01-27T08:43:43;2.90;99.90
60353;DHT22;46196;52.970;6.954;2024-01-27T08:46:09;2.90;99.90
60353;DHT22;46196;52.970;6.954;2024-01-27T08:48:38;2.90;99.90
60353;DHT22;46196;52.970;6.954;2024-01-27T08:51:05;2.90;99.90
60353;DHT22;46196;52.970;6.954;2024-01-27T08:53:30;3.00;99.90
60353;DHT22;46196;52.970;6.954;2024-01-27T08:55:56;3.10;99.90
60353;DHT22;46196;52.970;6.954;2024-01-27T08:58:21;3.40;99.90
60353;DHT22;46196;52.970;6.954;2024-01-27T09:00:47;4.00;99.90
60353;DHT22;46196;52.970;6.954;2024-01-27T09:03:13;3.70;99.90
60353;DHT22;46196;52.970;6.954;2024-01-27T09:05:39;4.00;99.90
60353;DHT22;46196;52.970;6.954;2024-01-27T09:08:09;4.30;99.90
60353;DHT22;46196;52.970;6.954;2024-01-27T09:10:35;4.50;99.90
60353;DHT22;46196;52.970;6.954;2024-01-27T09:13:00;4.70;99.90
60353;DHT22;46196;52.970;6.954;2024-01-27T09:15:26;4.90;99.90
60353;DHT22;46196;52.970;6.954;2024-01-27T09:17:51;5.90;99.90
60353;DHT22;46196;52.970;6.954;2024-01-27T09:20:17;4.70;99.90
60353;DHT22;46196;52.970;6.954;2024-01-27T09:22:43;4.60;99.90
60353;DHT22;46196;52.970;6.954;2024-01-27T09:25:10;5.60;99.90
60353;DHT22;46196;52.970;6.954;2024-01-27T09:27:36;4.50;99.90
60353;DHT22;46196;52.970;6.954;2024-01-27T09:30:02;4.50;99.90
60353;DHT22;46196;52.970;6.954;2024-01-27T09:32:28;4.50;99.90
60353;DHT22;46196;52.970;6.954;2024-01-27T09:34:54;4.60;99.90
60353;DHT22;46196;52.970;6.954;2024-01-27T09:37:19;4.70;99.90
60353;DHT22;46196;52.970;6.954;2024-01-27T09:39:45;4.80;99.90
60353;DHT22;46196;52.970;6.954;2024-01-27T09:42:13;4.90;99.90
60353;DHT22;46196;52.970;6.954;2024-01-27T09:44:48;5.00;99.90
60353;DHT22;46196;52.970;6.954;2024-01-27T09:47:14;5.10;99.90
60353;DHT22;46196;52.970;6.954;2024-01-27T09:49:40;5.20;99.90
60353;DHT22;46196;52.970;6.954;2024-01-27T09:52:09;5.30;99.90
60353;DHT22;46196;52.970;6.954;2024-01-27T09:54:36;5.40;99.90
60353;DHT22;46196;52.970;6.954;2024-01-27T09:57:02;5.30;99.90
60353;DHT22;46196;52.970;6.954;2024-01-27T09:59:29;5.40;99.90
60353;DHT22;46196;52.970;6.954;2024-01-27T10:01:56;5.50;99.90
60353;DHT22;46196;52.970;6.954;2024-01-27T10:04:24;5.40;99.90
60353;DHT22;46196;52.970;6.954;2024-01-27T10:06:50;5.50;99.90
60353;DHT22;46196;52.970;6.954;2024-01-27T10:09:17;5.60;99.90
60353;DHT22;46196;52.970;6.954;2024-01-27T10:11:46;5.70;99.90
60353;DHT22;46196;52.970;6.954;2024-01-27T10:14:12;5.70;99.90
60353;DHT22;46196;52.970;6.954;2024-01-27T10:16:45;5.70;99.90
60353;DHT22;46196;52.970;6.954;2024-01-27T10:19:18;5.80;99.90
60353;DHT22;46196;52.970;6.954;2024-01-27T10:21:45;5.90;99.90
60353;DHT22;46196;52.970;6.954;2024-01-27T10:24:11;6.00;99.90
60353;DHT22;46196;52.970;6.954;2024-01-27T10:26:37;6.00;99.90
60353;DHT22;46196;52.970;6.954;2024-01-27T10:29:03;6.10;99.90
60353;DHT22;46196;52.970;6.954;2024-01-27T10:31:30;7.00;99.90
60353;DHT22;46196;52.970;6.954;2024-01-27T10:33:57;6.30;99.90
60353;DHT22;46196;52.970;6.954;2024-01-27T10:36:24;6.40;99.90
60353;DHT22;46196;52.970;6.954;2024-01-27T10:38:49;6.50;99.90
60353;DHT22;46196;52.970;6.954;2024-01-27T10:41:22;6.50;99.90
60353;DHT22;46196;52.970;6.954;2024-01-27T10:43:50;6.60;99.90
60353;DHT22;46196;52.970;6.954;2024-01-27T10:46:19;6.70;99.90
60353;DHT22;46196;52.970;6.954;2024-01-27T10:48:52;6.70;99.90
60353;DHT22;46196;52.970;6.954;2024-01-27T10:51:45;6.70;99.90
60353;DHT22;46196;52.970;6.954;2024-01-27T10:54:18;6.80;99.90
60353;DHT22;46196;52.970;6.954;2024-01-27T10:56:45;7.00;99.90
60353;DHT22;46196;52.970;6.954;2024-01-27T10:59:13;7.10;99.90
60353;DHT22;46196;52.970;6.954;2024-01-27T11:01:41;7.10;99.90
60353;DHT22;46196;52.970;6.954;2024-01-27T11:04:10;7.20;99.90
60353;DHT22;46196;52.970;6.954;2024-01-27T11:06:37;7.40;99.90
60353;DHT22;46196;52.970;6.954;2024-01-27T11:09:03;7.40;99.90
60353;DHT22;46196;52.970;6.954;2024-01-27T11:11:30;7.70;99.90
60353;DHT22;46196;52.970;6.954;2024-01-27T11:13:56;7.70;99.90
60353;DHT22;46196;52.970;6.954;2024-01-27T11:16:23;7.70;99.90
60353;DHT22;46196;52.970;6.954;2024-01-27T11:18:49;8.10;99.90
60353;DHT22;46196;52.970;6.954;2024-01-27T11:21:15;8.20;99.90
60353;DHT22;46196;52.970;6.954;2024-01-27T11:23:41;8.40;99.90
60353;DHT22;46196;52.970;6.954;2024-01-27T11:26:09;8.60;99.90
60353;DHT22;46196;52.970;6.954;2024-01-27T11:28:36;8.80;99.90
60353;DHT22;46196;52.970;6.954;2024-01-27T11:31:05;9.00;99.90
60353;DHT22;46196;52.970;6.954;2024-01-27T11:33:31;9.10;99.90
60353;DHT22;46196;52.970;6.954;2024-01-27T11:36:04;9.50;99.90
60353;DHT22;46196;52.970;6.954;2024-01-27T11:38:31;9.30;99.90
60353;DHT22;46196;52.970;6.954;2024-01-27T11:40:56;9.50;99.90
60353;DHT22;46196;52.970;6.954;2024-01-27T11:43:22;9.60;99.90
60353;DHT22;46196;52.970;6.954;2024-01-27T11:46:01;9.60;99.90
60353;DHT22;46196;52.970;6.954;2024-01-27T11:48:27;9.30;99.90
60353;DHT22;46196;52.970;6.954;2024-01-27T11:51:10;9.10;99.90
60353;DHT22;46196;52.970;6.954;2024-01-27T11:53:36;9.80;99.90
60353;DHT22;46196;52.970;6.954;2024-01-27T11:56:01;9.00;99.90
60353;DHT22;46196;52.970;6.954;2024-01-27T11:58:27;8.90;99.90
60353;DHT22;46196;52.970;6.954;2024-01-27T12:00:54;9.00;99.90
60353;DHT22;46196;52.970;6.954;2024-01-27T12:03:19;8.90;99.90
60353;DHT22;46196;52.970;6.954;2024-01-27T12:05:45;8.90;99.90
60353;DHT22;46196;52.970;6.954;2024-01-27T12:08:11;8.80;99.90
60353;DHT22;46196;52.970;6.954;2024-01-27T12:10:37;9.00;99.90
60353;DHT22;46196;52.970;6.954;2024-01-27T12:13:03;9.00;99.90
60353;DHT22;46196;52.970;6.954;2024-01-27T12:15:28;8.90;99.90
60353;DHT22;46196;52.970;6.954;2024-01-27T12:17:54;8.90;99.90
60353;DHT22;46196;52.970;6.954;2024-01-27T12:20:22;9.00;99.90
60353;DHT22;46196;52.970;6.954;2024-01-27T12:22:48;8.90;99.90
60353;DHT22;46196;52.970;6.954;2024-01-27T12:25:16;8.90;99.90
60353;DHT22;46196;52.970;6.954;2024-01-27T12:27:43;9.00;99.90
60353;DHT22;46196;52.970;6.954;2024-01-27T12:30:10;9.10;99.90
60353;DHT22;46196;52.970;6.954;2024-01-27T12:32:36;9.10;99.90
60353;DHT22;46196;52.970;6.954;2024-01-27T12:35:05;9.20;99.90
60353;DHT22;46196;52.970;6.954;2024-01-27T12:37:31;9.20;99.90
60353;DHT22;46196;52.970;6.954;2024-01-27T12:39:57;9.20;99.90
60353;DHT22;46196;52.970;6.954;2024-01-27T12:42:22;9.20;99.90
60353;DHT22;46196;52.970;6.954;2024-01-27T12:44:48;9.30;99.90
60353;DHT22;46196;52.970;6.954;2024-01-27T12:47:14;9.70;99.90
60353;DHT22;46196;52.970;6.954;2024-01-27T12:49:40;9.40;99.90
60353;DHT22;46196;52.970;6.954;2024-01-27T12:52:06;9.40;99.90
60353;DHT22;46196;52.970;6.954;2024-01-27T12:54:32;9.50;99.90
60353;DHT22;46196;52.970;6.954;2024-01-27T12:56:58;9.50;99.90
60353;DHT22;46196;52.970;6.954;2024-01-27T12:59:25;9.60;99.90
60353;DHT22;46196;52.970;6.954;2024-01-27T13:01:50;9.60;99.90
60353;DHT22;46196;52.970;6.954;2024-01-27T13:04:16;9.60;99.90
60353;DHT22;46196;52.970;6.954;2024-01-27T13:06:42;9.60;99.90
60353;DHT22;46196;52.970;6.954;2024-01-27T13:09:08;9.50;99.90
60353;DHT22;46196;52.970;6.954;2024-01-27T13:11:40;9.50;99.90
60353;DHT22;46196;52.970;6.954;2024-01-27T13:14:05;9.60;99.90
60353;DHT22;46196;52.970;6.954;2024-01-27T13:16:32;9.70;99.90
60353;DHT22;46196;52.970;6.954;2024-01-27T13:18:58;9.70;99.90
60353;DHT22;46196;52.970;6.954;2024-01-27T13:21:23;9.70;99.90
60353;DHT22;46196;52.970;6.954;2024-01-27T13:23:49;9.70;99.90
60353;DHT22;46196;52.970;6.954;2024-01-27T13:26:17;9.70;99.90
60353;DHT22;46196;52.970;6.954;2024-01-27T13:28:43;9.70;99.90
60353;DHT22;46196;52.970;6.954;2024-01-27T13:31:08;9.70;99.90
60353;DHT22;46196;52.970;6.954;2024-01-27T13:33:35;9.70;99.90
60353;DHT22;46196;52.970;6.954;2024-01-27T13:36:01;9.50;99.90
60353;DHT22;46196;52.970;6.954;2024-01-27T13:38:27;9.60;99.90
60353;DHT22;46196;52.970;6.954;2024-01-27T13:40:53;9.60;99.90
60353;DHT22;46196;52.970;6.954;2024-01-27T13:43:18;9.60;99.90
60353;DHT22;46196;52.970;6.954;2024-01-27T13:45:44;10.20;99.90
60353;DHT22;46196;52.970;6.954;2024-01-27T13:48:11;9.50;99.90
60353;DHT22;46196;52.970;6.954;2024-01-27T13:50:37;9.60;99.90
60353;DHT22;46196;52.970;6.954;2024-01-27T13:53:02;9.60;99.90
60353;DHT22;46196;52.970;6.954;2024-01-27T13:55:31;9.60;99.90
60353;DHT22;46196;52.970;6.954;2024-01-27T13:57:56;9.60;99.90
60353;DHT22;46196;52.970;6.954;2024-01-27T14:00:22;9.60;99.90
60353;DHT22;46196;52.970;6.954;2024-01-27T14:02:48;9.60;99.90
60353;DHT22;46196;52.970;6.954;2024-01-27T14:05:13;9.60;99.90
60353;DHT22;46196;52.970;6.954;2024-01-27T14:07:39;9.60;99.90
60353;DHT22;46196;52.970;6.954;2024-01-27T14:10:05;9.60;99.90
60353;DHT22;46196;52.970;6.954;2024-01-27T14:12:31;9.60;99.90
60353;DHT22;46196;52.970;6.954;2024-01-27T14:15:05;9.60;99.90
60353;DHT22;46196;52.970;6.954;2024-01-27T14:17:34;9.60;99.90
60353;DHT22;46196;52.970;6.954;2024-01-27T14:20:01;9.60;99.90
60353;DHT22;46196;52.970;6.954;2024-01-27T14:22:27;9.50;99.90
60353;DHT22;46196;52.970;6.954;2024-01-27T14:24:53;9.40;99.90
60353;DHT22;46196;52.970;6.954;2024-01-27T14:27:19;9.50;99.90
60353;DHT22;46196;52.970;6.954;2024-01-27T14:29:52;9.30;99.90
60353;DHT22;46196;52.970;6.954;2024-01-27T14:32:18;9.20;99.90
60353;DHT22;46196;52.970;6.954;2024-01-27T14:34:43;9.20;99.90
60353;DHT22;46196;52.970;6.954;2024-01-27T14:37:09;9.10;99.90
60353;DHT22;46196;52.970;6.954;2024-01-27T14:39:35;9.00;99.90
60353;DHT22;46196;52.970;6.954;2024-01-27T14:42:02;9.00;99.90
60353;DHT22;46196;52.970;6.954;2024-01-27T14:44:29;8.90;99.90
60353;DHT22;46196;52.970;6.954;2024-01-27T14:46:55;8.80;99.90
60353;DHT22;46196;52.970;6.954;2024-01-27T14:49:21;8.70;99.90
60353;DHT22;46196;52.970;6.954;2024-01-27T14:51:48;8.70;99.90
60353;DHT22;46196;52.970;6.954;2024-01-27T14:54:13;8.70;99.90
60353;DHT22;46196;52.970;6.954;2024-01-27T14:56:39;8.50;99.90
60353;DHT22;46196;52.970;6.954;2024-01-27T14:59:05;8.50;99.90
60353;DHT22;46196;52.970;6.954;2024-01-27T15:01:33;8.50;99.90
60353;DHT22;46196;52.970;6.954;2024-01-27T15:03:58;8.60;99.90
60353;DHT22;46196;52.970;6.954;2024-01-27T15:06:26;8.40;99.90
60353;DHT22;46196;52.970;6.954;2024-01-27T15:08:53;8.30;99.90
60353;DHT22;46196;52.970;6.954;2024-01-27T15:11:18;9.50;99.90
60353;DHT22;46196;52.970;6.954;2024-01-27T15:13:44;8.20;99.90
60353;DHT22;46196;52.970;6.954;2024-01-27T15:16:10;8.10;99.90
60353;DHT22;46196;52.970;6.954;2024-01-27T15:18:36;8.00;99.90
60353;DHT22;46196;52.970;6.954;2024-01-27T15:21:06;8.00;99.90
60353;DHT22;46196;52.970;6.954;2024-01-27T15:23:31;7.90;99.90
60353;DHT22;46196;52.970;6.954;2024-01-27T15:25:57;7.90;99.90
60353;DHT22;46196;52.970;6.954;2024-01-27T15:28:23;7.80;99.90
60353;DHT22;46196;52.970;6.954;2024-01-27T15:30:48;7.90;99.90
60353;DHT22;46196;52.970;6.954;2024-01-27T15:33:15;7.60;99.90
60353;DHT22;46196;52.970;6.954;2024-01-27T15:35:40;7.60;99.90
60353;DHT22;46196;52.970;6.954;2024-01-27T15:38:06;7.50;99.90